sensor_id;sensor_type;location;lat;lon;timestamp;P1;durP1;ratioP1;P2;durP2;ratioP2
37341;SDS011;58643;49.052;8.518;2024-02-15T08:00:49;10.30;;;1.80;;
37341;SDS011;58643;49.052;8.518;2024-02-15T08:03:15;8.20;;;2.17;;
37341;SDS011;58643;49.052;8.518;2024-02-15T08:05:40;5.47;;;1.90;;
37341;SDS011;58643;49.052;8.518;2024-02-15T08:08:06;9.70;;;2.25;;
37341;SDS011;58643;49.052;8.518;2024-02-15T08:10:32;8.23;;;1.90;;
37341;SDS011;58643;49.052;8.518;2024-02-15T08:12:58;6.35;;;2.20;;
37341;SDS011;58643;49.052;8.518;2024-02-15T08:15:24;4.57;;;2.03;;
37341;SDS011;58643;49.052;8.518;2024-02-15T08:17:52;7.53;;;2.05;;
37341;SDS011;58643;49.052;8.518;2024-02-15T08:20:20;5.40;;;2.33;;
37341;SDS011;58643;49.052;8.518;2024-02-15T08:22:48;7.53;;;2.53;;
37341;SDS011;58643;49.052;8.518;2024-02-15T08:25:14;5.03;;;2.15;;
37341;SDS011;58643;49.052;8.518;2024-02-15T08:27:48;7.10;;;2.00;;
37341;SDS011;58643;49.052;8.518;2024-02-15T08:30:17;5.35;;;2.00;;
37341;SDS011;58643;49.052;8.518;2024-02-15T08:32:43;4.95;;;1.80;;
37341;SDS011;58643;49.052;8.518;2024-02-15T08:35:10;6.78;;;1.92;;
37341;SDS011;58643;49.052;8.518;2024-02-15T08:37:37;6.93;;;2.08;;
37341;SDS011;58643;49.052;8.518;2024-02-15T08:40:13;3.30;;;1.38;;
37341;SDS011;58643;49.052;8.518;2024-02-15T08:42:43;8.07;;;1.42;;
37341;SDS011;58643;49.052;8.518;2024-02-15T09:07:06;3.10;;;1.17;;
37341;SDS011;58643;49.052;8.518;2024-02-15T09:09:32;4.43;;;1.50;;
37341;SDS011;58643;49.052;8.518;2024-02-15T09:16:59;5.20;;;1.70;;
37341;SDS011;58643;49.052;8.518;2024-02-15T09:56:03;3.38;;;1.30;;
37341;SDS011;58643;49.052;8.518;2024-02-15T09:58:31;4.28;;;1.50;;
37341;SDS011;58643;49.052;8.518;2024-02-15T10:01:03;4.10;;;1.50;;
37341;SDS011;58643;49.052;8.518;2024-02-15T10:03:34;6.55;;;1.40;;
37341;SDS011;58643;49.052;8.518;2024-02-15T10:06:02;3.58;;;1.25;;
37341;SDS011;58643;49.052;8.518;2024-02-15T10:08:29;2.83;;;1.30;;
37341;SDS011;58643;49.052;8.518;2024-02-15T10:13:33;4.45;;;1.50;;
37341;SDS011;58643;49.052;8.518;2024-02-15T10:15:59;5.13;;;2.00;;
37341;SDS011;58643;49.052;8.518;2024-02-15T10:18:43;5.97;;;1.63;;
37341;SDS011;58643;49.052;8.518;2024-02-15T10:21:27;5.25;;;1.40;;
37341;SDS011;58643;49.052;8.518;2024-02-15T10:24:07;2.15;;;1.08;;
37341;SDS011;58643;49.052;8.518;2024-02-15T10:26:33;2.58;;;1.00;;
37341;SDS011;58643;49.052;8.518;2024-02-15T10:29:06;6.93;;;1.08;;
37341;SDS011;58643;49.052;8.518;2024-02-15T10:31:34;2.67;;;0.82;;
37341;SDS011;58643;49.052;8.518;2024-02-15T10:34:04;6.18;;;0.80;;
37341;SDS011;58643;49.052;8.518;2024-02-15T10:36:31;4.55;;;0.98;;
37341;SDS011;58643;49.052;8.518;2024-02-15T10:39:12;3.17;;;1.00;;
37341;SDS011;58643;49.052;8.518;2024-02-15T10:41:51;3.88;;;1.00;;
37341;SDS011;58643;49.052;8.518;2024-02-15T10:44:21;3.45;;;0.93;;
37341;SDS011;58643;49.052;8.518;2024-02-15T10:46:49;2.15;;;0.80;;
37341;SDS011;58643;49.052;8.518;2024-02-15T10:49:20;1.33;;;0.60;;
37341;SDS011;58643;49.052;8.518;2024-02-15T10:51:50;2.97;;;1.00;;
37341;SDS011;58643;49.052;8.518;2024-02-15T10:57:12;4.53;;;1.00;;
37341;SDS011;58643;49.052;8.518;2024-02-15T10:59:39;2.17;;;0.90;;
37341;SDS011;58643;49.052;8.518;2024-02-15T11:02:24;4.93;;;0.95;;
37341;SDS011;58643;49.052;8.518;2024-02-15T11:04:55;2.58;;;0.73;;
37341;SDS011;58643;49.052;8.518;2024-02-15T11:07:27;1.88;;;0.82;;
37341;SDS011;58643;49.052;8.518;2024-02-15T11:09:54;4.93;;;1.10;;
37341;SDS011;58643;49.052;8.518;2024-02-15T11:12:25;2.63;;;0.95;;
37341;SDS011;58643;49.052;8.518;2024-02-15T11:14:52;5.20;;;1.00;;
37341;SDS011;58643;49.052;8.518;2024-02-15T11:20:07;2.67;;;0.80;;
37341;SDS011;58643;49.052;8.518;2024-02-15T11:22:37;2.80;;;0.90;;
37341;SDS011;58643;49.052;8.518;2024-02-15T11:25:04;1.95;;;0.75;;
37341;SDS011;58643;49.052;8.518;2024-02-15T11:27:39;4.53;;;1.00;;
37341;SDS011;58643;49.052;8.518;2024-02-15T11:30:06;2.20;;;0.90;;
37341;SDS011;58643;49.052;8.518;2024-02-15T11:32:44;4.75;;;1.20;;
37341;SDS011;58643;49.052;8.518;2024-02-15T11:35:21;7.28;;;1.13;;
37341;SDS011;58643;49.052;8.518;2024-02-15T11:37:49;5.60;;;0.90;;
37341;SDS011;58643;49.052;8.518;2024-02-15T11:40:27;2.88;;;0.93;;
37341;SDS011;58643;49.052;8.518;2024-02-15T11:42:58;1.65;;;0.75;;
37341;SDS011;58643;49.052;8.518;2024-02-15T11:45:24;2.72;;;0.90;;
37341;SDS011;58643;49.052;8.518;2024-02-15T11:47:52;3.67;;;1.05;;
37341;SDS011;58643;49.052;8.518;2024-02-15T11:50:19;6.30;;;0.90;;
37341;SDS011;58643;49.052;8.518;2024-02-15T11:52:46;2.75;;;0.90;;
37341;SDS011;58643;49.052;8.518;2024-02-15T11:55:19;3.47;;;1.00;;
37341;SDS011;58643;49.052;8.518;2024-02-15T11:57:58;5.03;;;0.80;;
37341;SDS011;58643;49.052;8.518;2024-02-15T12:00:42;3.72;;;1.23;;
37341;SDS011;58643;49.052;8.518;2024-02-15T12:03:26;5.45;;;1.08;;
37341;SDS011;58643;49.052;8.518;2024-02-15T12:06:11;4.30;;;1.52;;
37341;SDS011;58643;49.052;8.518;2024-02-15T12:08:55;4.55;;;1.15;;
37341;SDS011;58643;49.052;8.518;2024-02-15T12:11:39;5.22;;;1.08;;
37341;SDS011;58643;49.052;8.518;2024-02-15T12:14:23;2.72;;;0.85;;
37341;SDS011;58643;49.052;8.518;2024-02-15T12:17:09;4.50;;;1.10;;
37341;SDS011;58643;49.052;8.518;2024-02-15T12:19:55;4.13;;;1.05;;
37341;SDS011;58643;49.052;8.518;2024-02-15T12:22:32;2.00;;;0.80;;
37341;SDS011;58643;49.052;8.518;2024-02-15T12:25:07;4.75;;;1.08;;
37341;SDS011;58643;49.052;8.518;2024-02-15T12:27:39;1.65;;;1.13;;
37341;SDS011;58643;49.052;8.518;2024-02-15T12:30:08;4.53;;;1.25;;
37341;SDS011;58643;49.052;8.518;2024-02-15T12:32:46;6.72;;;0.80;;
37341;SDS011;58643;49.052;8.518;2024-02-15T12:35:15;3.67;;;0.80;;
37341;SDS011;58643;49.052;8.518;2024-02-15T12:38:06;3.10;;;1.02;;
37341;SDS011;58643;49.052;8.518;2024-02-15T12:40:36;3.22;;;1.00;;
37341;SDS011;58643;49.052;8.518;2024-02-15T12:43:06;2.63;;;0.70;;
37341;SDS011;58643;49.052;8.518;2024-02-15T12:45:36;3.00;;;0.85;;
37341;SDS011;58643;49.052;8.518;2024-02-15T12:48:03;3.47;;;0.70;;
37341;SDS011;58643;49.052;8.518;2024-02-15T12:50:30;1.30;;;0.90;;
37341;SDS011;58643;49.052;8.518;2024-02-15T12:52:56;3.30;;;1.10;;
37341;SDS011;58643;49.052;8.518;2024-02-15T12:55:28;1.73;;;0.63;;
37341;SDS011;58643;49.052;8.518;2024-02-15T12:57:59;0.90;;;0.70;;
37341;SDS011;58643;49.052;8.518;2024-02-15T13:00:29;2.60;;;0.95;;
37341;SDS011;58643;49.052;8.518;2024-02-15T13:03:01;1.88;;;1.00;;
37341;SDS011;58643;49.052;8.518;2024-02-15T13:05:33;3.03;;;1.00;;
37341;SDS011;58643;49.052;8.518;2024-02-15T13:08:01;5.30;;;1.38;;
37341;SDS011;58643;49.052;8.518;2024-02-15T13:10:30;10.05;;;4.82;;
37341;SDS011;58643;49.052;8.518;2024-02-15T13:12:56;8.90;;;3.15;;
37341;SDS011;58643;49.052;8.518;2024-02-15T13:15:23;3.88;;;1.70;;
37341;SDS011;58643;49.052;8.518;2024-02-15T13:17:55;4.30;;;1.80;;
37341;SDS011;58643;49.052;8.518;2024-02-15T13:25:27;3.75;;;1.15;;
37341;SDS011;58643;49.052;8.518;2024-02-15T13:27:56;2.60;;;0.82;;
37341;SDS011;58643;49.052;8.518;2024-02-15T13:30:24;3.97;;;1.20;;
37341;SDS011;58643;49.052;8.518;2024-02-15T13:32:52;2.38;;;0.93;;
37341;SDS011;58643;49.052;8.518;2024-02-15T13:35:21;2.47;;;1.08;;
37341;SDS011;58643;49.052;8.518;2024-02-15T13:37:52;2.45;;;1.00;;
37341;SDS011;58643;49.052;8.518;2024-02-15T13:40:19;4.22;;;1.00;;
37341;SDS011;58643;49.052;8.518;2024-02-15T13:42:49;5.25;;;1.27;;
37341;SDS011;58643;49.052;8.518;2024-02-15T13:45:19;3.83;;;1.70;;
37341;SDS011;58643;49.052;8.518;2024-02-15T13:47:47;2.78;;;0.90;;
37341;SDS011;58643;49.052;8.518;2024-02-15T13:50:15;2.08;;;0.90;;
37341;SDS011;58643;49.052;8.518;2024-02-15T13:52:42;4.28;;;1.05;;
37341;SDS011;58643;49.052;8.518;2024-02-15T13:55:10;3.78;;;0.85;;
37341;SDS011;58643;49.052;8.518;2024-02-15T13:57:40;2.17;;;1.13;;
